createdAt,value
2019-03-21T00:00:38.558Z,0
2019-03-21T00:01:38.533Z,0
2019-03-21T00:02:38.505Z,0
2019-03-21T00:03:38.472Z,0
2019-03-21T00:04:38.441Z,0
2019-03-21T00:05:38.423Z,0
2019-03-21T00:06:38.384Z,0
2019-03-21T00:07:38.369Z,0
2019-03-21T00:08:38.340Z,0
2019-03-21T00:09:38.317Z,0
2019-03-21T00:10:38.473Z,0
2019-03-21T00:11:38.020Z,0
2019-03-21T00:12:38.223Z,0
2019-03-21T00:13:38.202Z,0
2019-03-21T00:14:38.187Z,0
2019-03-21T00:15:38.148Z,0
2019-03-21T00:16:38.156Z,0
2019-03-21T00:17:38.096Z,0
2019-03-21T00:18:38.090Z,0
2019-03-21T00:19:38.047Z,0
2019-03-21T00:20:38.015Z,0
2019-03-21T00:21:37.992Z,0
2019-03-21T00:22:39.161Z,0
2019-03-21T00:23:37.944Z,0
2019-03-21T00:24:37.912Z,0
2019-03-21T00:25:37.881Z,0
2019-03-21T00:26:38.470Z,0
2019-03-21T00:27:37.833Z,0
2019-03-21T00:28:37.800Z,0
2019-03-21T00:29:37.778Z,0
2019-03-21T00:30:37.756Z,0
2019-03-21T00:31:37.723Z,0
2019-03-21T00:32:37.713Z,0
2019-03-21T00:33:37.670Z,0
2019-03-21T00:34:37.407Z,0
2019-03-21T00:35:38.669Z,0
2019-03-21T00:36:37.597Z,0
2019-03-21T00:37:37.557Z,0
2019-03-21T00:38:37.536Z,0
2019-03-21T00:39:42.322Z,0
2019-03-21T00:40:37.483Z,0
2019-03-21T00:41:37.462Z,0
2019-03-21T00:42:37.434Z,0
2019-03-21T00:43:37.406Z,0
2019-03-21T00:44:37.371Z,0
2019-03-21T00:45:37.362Z,0
2019-03-21T00:46:37.317Z,0
2019-03-21T00:47:37.300Z,0
2019-03-21T00:48:37.265Z,0
2019-03-21T00:49:37.252Z,0
2019-03-21T00:50:37.222Z,0
2019-03-21T00:51:37.209Z,0
2019-03-21T00:52:37.169Z,0
2019-03-21T00:53:37.135Z,0
2019-03-21T00:54:37.112Z,0
2019-03-21T00:55:37.080Z,0
2019-03-21T00:56:37.055Z,0
2019-03-21T00:57:37.023Z,0
2019-03-21T00:58:37.013Z,0
2019-03-21T00:59:36.974Z,0
2019-03-21T01:00:36.952Z,0
2019-03-21T01:01:36.959Z,0
2019-03-21T01:02:36.891Z,0
2019-03-21T01:03:36.873Z,0
2019-03-21T01:04:36.843Z,0
2019-03-21T01:05:36.821Z,0
2019-03-21T01:06:36.788Z,0
2019-03-21T01:07:36.757Z,0
2019-03-21T01:08:36.734Z,0
2019-03-21T01:09:36.701Z,0
2019-03-21T01:10:36.677Z,0
2019-03-21T01:11:36.655Z,0
2019-03-21T01:12:37.329Z,0
2019-03-21T01:13:36.594Z,0
2019-03-21T01:14:39.496Z,0
2019-03-21T01:15:36.539Z,0
2019-03-21T01:16:36.515Z,0
2019-03-21T01:17:36.493Z,0
2019-03-21T01:18:36.575Z,0
2019-03-21T01:19:38.183Z,0
2019-03-21T01:20:36.414Z,0
2019-03-21T01:21:36.409Z,0
2019-03-21T01:22:36.358Z,0
2019-03-21T01:23:36.325Z,0
2019-03-21T01:24:36.299Z,0
2019-03-21T01:25:36.270Z,0
2019-03-21T01:26:36.248Z,0
2019-03-21T01:27:36.220Z,0
2019-03-21T01:28:36.201Z,0
2019-03-21T01:29:36.168Z,0
2019-03-21T01:30:36.136Z,0
2019-03-21T01:31:36.118Z,0
2019-03-21T01:32:36.088Z,0
2019-03-21T01:33:36.059Z,0
2019-03-21T01:34:36.030Z,0
2019-03-21T01:35:36.008Z,0
2019-03-21T01:36:35.973Z,0
2019-03-21T01:37:35.943Z,0
2019-03-21T01:38:35.918Z,0
2019-03-21T01:39:35.888Z,0
2019-03-21T01:40:35.861Z,0
2019-03-21T01:41:35.837Z,0
2019-03-21T01:42:35.819Z,0
2019-03-21T01:43:35.780Z,0
2019-03-21T01:44:45.676Z,0
2019-03-21T01:45:35.732Z,0
2019-03-21T01:46:35.709Z,0
2019-03-21T01:47:35.682Z,0
2019-03-21T01:48:35.655Z,0
2019-03-21T01:49:35.615Z,0
2019-03-21T01:50:36.791Z,0
2019-03-21T01:51:35.593Z,0
2019-03-21T01:52:35.539Z,0
2019-03-21T01:53:35.510Z,0
2019-03-21T01:54:35.480Z,0
2019-03-21T01:55:35.475Z,0
2019-03-21T01:56:35.434Z,0
2019-03-21T01:57:35.399Z,0
2019-03-21T01:58:35.369Z,0
2019-03-21T01:59:35.340Z,0
2019-03-21T02:00:35.319Z,0
2019-03-21T02:01:35.299Z,0
2019-03-21T02:02:35.262Z,0
2019-03-21T02:03:35.233Z,0
2019-03-21T02:04:35.225Z,0
2019-03-21T02:05:35.188Z,0
2019-03-21T02:06:35.154Z,0
2019-03-21T02:07:35.123Z,0
2019-03-21T02:08:35.102Z,0
2019-03-21T02:09:34.835Z,0
2019-03-21T02:10:35.117Z,0
2019-03-21T02:11:35.013Z,0
2019-03-21T02:12:35.005Z,0
2019-03-21T02:13:34.969Z,0
2019-03-21T02:14:34.934Z,0
2019-03-21T02:15:34.904Z,0
2019-03-21T02:16:34.884Z,0
2019-03-21T02:17:34.856Z,0
2019-03-21T02:18:34.833Z,0
2019-03-21T02:19:34.803Z,0
2019-03-21T02:20:34.782Z,0
2019-03-21T02:21:34.740Z,0
2019-03-21T02:22:34.713Z,0
2019-03-21T02:23:34.677Z,0
2019-03-21T02:24:34.666Z,0
2019-03-21T02:25:34.633Z,0
2019-03-21T02:26:34.605Z,0
2019-03-21T02:27:34.658Z,0
2019-03-21T02:28:34.550Z,0
2019-03-21T02:29:34.518Z,0
2019-03-21T02:30:34.504Z,0
2019-03-21T02:31:34.640Z,0
2019-03-21T02:32:34.461Z,0
2019-03-21T02:33:34.435Z,0
2019-03-21T02:34:34.390Z,0
2019-03-21T02:35:38.102Z,0
2019-03-21T02:36:34.559Z,0
2019-03-21T02:37:34.304Z,0
2019-03-21T02:38:34.281Z,0
2019-03-21T02:39:34.256Z,0
2019-03-21T02:40:34.221Z,0
2019-03-21T02:41:35.255Z,0
2019-03-21T02:42:34.177Z,0
2019-03-21T02:43:34.214Z,0
2019-03-21T02:44:34.245Z,0
2019-03-21T02:45:33.844Z,0
2019-03-21T02:46:34.152Z,0
2019-03-21T02:47:34.091Z,0
2019-03-21T02:48:34.073Z,0
2019-03-21T02:49:33.992Z,0
2019-03-21T02:50:33.704Z,0
2019-03-21T02:51:33.924Z,0
2019-03-21T02:52:33.889Z,0
2019-03-21T02:53:33.887Z,0
2019-03-21T02:54:33.874Z,0
2019-03-21T02:55:33.811Z,0
2019-03-21T02:56:33.802Z,0
2019-03-21T02:57:33.754Z,0
2019-03-21T02:58:33.746Z,0
2019-03-21T02:59:33.696Z,0
2019-03-21T03:00:33.670Z,0
2019-03-21T03:01:33.690Z,0
2019-03-21T03:02:37.011Z,0
2019-03-21T03:03:33.595Z,0
2019-03-21T03:04:33.586Z,0
2019-03-21T03:05:33.533Z,0
2019-03-21T03:06:33.594Z,0
2019-03-21T03:07:33.561Z,0
2019-03-21T03:08:33.462Z,0
2019-03-21T03:09:33.438Z,0
2019-03-21T03:10:33.389Z,0
2019-03-21T03:11:33.373Z,0
2019-03-21T03:12:33.386Z,0
2019-03-21T03:13:33.368Z,0
2019-03-21T03:14:33.298Z,0
2019-03-21T03:15:33.275Z,0
2019-03-21T03:16:33.370Z,0
2019-03-21T03:17:33.204Z,0
2019-03-21T03:18:33.187Z,0
2019-03-21T03:19:33.148Z,0
2019-03-21T03:20:33.114Z,0
2019-03-21T03:21:33.104Z,0
2019-03-21T03:22:33.066Z,0
2019-03-21T03:23:33.177Z,0
2019-03-21T03:24:33.012Z,0
2019-03-21T03:25:33.025Z,0
2019-03-21T03:26:32.981Z,0
2019-03-21T03:27:32.914Z,0
2019-03-21T03:28:32.975Z,0
2019-03-21T03:29:32.853Z,0
2019-03-21T03:30:32.911Z,0
2019-03-21T03:31:32.854Z,0
2019-03-21T03:32:32.586Z,0
2019-03-21T03:33:32.844Z,0
2019-03-21T03:34:32.736Z,0
2019-03-21T03:35:32.714Z,0
2019-03-21T03:36:32.736Z,0
2019-03-21T03:37:32.641Z,0
2019-03-21T03:38:32.647Z,0
2019-03-21T03:39:32.602Z,0
2019-03-21T03:40:32.571Z,0
2019-03-21T03:41:32.530Z,0
2019-03-21T03:42:32.030Z,0
2019-03-21T03:43:32.544Z,0
2019-03-21T03:44:32.440Z,0
2019-03-21T03:45:46.847Z,0
2019-03-21T03:46:32.460Z,0
2019-03-21T03:47:32.132Z,0
2019-03-21T03:48:32.333Z,0
2019-03-21T03:49:32.332Z,0
2019-03-21T03:50:32.368Z,0
2019-03-21T03:51:32.294Z,0
2019-03-21T03:52:32.021Z,0
2019-03-21T03:53:31.974Z,0
2019-03-21T03:54:32.176Z,0
2019-03-21T03:55:32.135Z,0
2019-03-21T03:56:32.108Z,0
2019-03-21T03:57:31.845Z,0
2019-03-21T03:58:32.070Z,0
2019-03-21T03:59:32.036Z,0
2019-03-21T04:00:31.995Z,0
2019-03-21T04:01:31.966Z,0
2019-03-21T04:02:31.954Z,0
2019-03-21T04:03:31.928Z,0
2019-03-21T04:04:31.879Z,0
2019-03-21T04:05:31.906Z,0
2019-03-21T04:06:31.891Z,0
2019-03-21T04:07:31.805Z,0
2019-03-21T04:08:31.787Z,0
2019-03-21T04:09:31.748Z,0
2019-03-21T04:10:31.716Z,0
2019-03-21T04:11:31.713Z,0
2019-03-21T04:12:31.871Z,0
2019-03-21T04:13:31.640Z,0
2019-03-21T04:14:31.670Z,0
2019-03-21T04:15:31.609Z,0
2019-03-21T04:16:31.568Z,0
2019-03-21T04:17:31.507Z,0
2019-03-21T04:18:31.500Z,0
2019-03-21T04:19:31.464Z,0
2019-03-21T04:20:31.436Z,0
2019-03-21T04:21:31.191Z,0
2019-03-21T04:22:31.376Z,0
2019-03-21T04:23:31.359Z,0
2019-03-21T04:24:31.340Z,0
2019-03-21T04:25:31.293Z,0
2019-03-21T04:26:31.283Z,0
2019-03-21T04:27:31.247Z,0
2019-03-21T04:28:31.277Z,0
2019-03-21T04:29:31.171Z,0
2019-03-21T04:30:31.189Z,0
2019-03-21T04:31:31.119Z,0
2019-03-21T04:32:31.106Z,0
2019-03-21T04:33:32.504Z,0
2019-03-21T04:34:31.048Z,0
2019-03-21T04:35:31.066Z,0
2019-03-21T04:36:30.986Z,0
2019-03-21T04:37:30.957Z,0
2019-03-21T04:38:30.986Z,0
2019-03-21T04:39:30.903Z,0
2019-03-21T04:40:30.791Z,0
2019-03-21T04:41:30.841Z,0
2019-03-21T04:42:30.805Z,0
2019-03-21T04:43:30.771Z,0
2019-03-21T04:44:30.742Z,0
2019-03-21T04:45:30.721Z,0
2019-03-21T04:46:30.697Z,0
2019-03-21T04:47:30.660Z,0
2019-03-21T04:48:30.632Z,0
2019-03-21T04:49:30.669Z,0
2019-03-21T04:50:30.587Z,0
2019-03-21T04:51:30.549Z,0
2019-03-21T04:52:30.518Z,0
2019-03-21T04:53:30.489Z,0
2019-03-21T04:54:30.474Z,0
2019-03-21T04:55:30.437Z,0
2019-03-21T04:56:30.413Z,0
2019-03-21T04:57:30.385Z,0
2019-03-21T04:58:30.355Z,0
2019-03-21T04:59:30.340Z,0
2019-03-21T05:00:30.304Z,0
2019-03-21T05:01:30.267Z,0
2019-03-21T05:02:30.253Z,0
2019-03-21T05:03:30.241Z,0
2019-03-21T05:04:29.950Z,0
2019-03-21T05:05:30.156Z,0
2019-03-21T05:06:32.798Z,0
2019-03-21T05:07:30.111Z,0
2019-03-21T05:08:30.075Z,0
2019-03-21T05:09:30.053Z,0
2019-03-21T05:10:30.017Z,0
2019-03-21T05:11:29.993Z,0
2019-03-21T05:12:29.721Z,0
2019-03-21T05:13:29.928Z,0
2019-03-21T05:14:29.897Z,0
2019-03-21T05:15:29.874Z,0
2019-03-21T05:16:29.905Z,0
2019-03-21T05:17:31.019Z,0
2019-03-21T05:18:29.785Z,0
2019-03-21T05:19:29.776Z,5
2019-03-21T05:20:29.734Z,5
2019-03-21T05:21:29.704Z,5
2019-03-21T05:22:29.776Z,5
2019-03-21T05:23:29.647Z,5
2019-03-21T05:24:29.625Z,5
2019-03-21T05:25:29.585Z,5
2019-03-21T05:26:29.569Z,5
2019-03-21T05:27:29.549Z,10
2019-03-21T05:28:29.498Z,10
2019-03-21T05:29:29.500Z,10
2019-03-21T05:30:29.452Z,10
2019-03-21T05:31:29.430Z,15
2019-03-21T05:32:29.395Z,15
2019-03-21T05:33:29.391Z,15
2019-03-21T05:34:30.569Z,20
2019-03-21T05:35:29.311Z,20
2019-03-21T05:36:29.288Z,20
2019-03-21T05:37:29.263Z,25
2019-03-21T05:38:28.997Z,25
2019-03-21T05:39:29.208Z,30
2019-03-21T05:40:29.169Z,30
2019-03-21T05:41:29.165Z,35
2019-03-21T05:42:29.116Z,35
2019-03-21T05:43:29.096Z,40
2019-03-21T05:44:30.789Z,45
2019-03-21T05:45:29.034Z,45
2019-03-21T05:46:36.005Z,50
2019-03-21T05:47:28.982Z,50
2019-03-21T05:48:29.002Z,55
2019-03-21T05:49:28.944Z,60
2019-03-21T05:50:28.900Z,60
2019-03-21T05:51:28.917Z,65
2019-03-21T05:52:28.848Z,65
2019-03-21T05:53:28.881Z,70
2019-03-21T05:54:28.827Z,75
2019-03-21T05:55:31.477Z,75
2019-03-21T05:56:28.738Z,80
2019-03-21T05:57:28.708Z,85
2019-03-21T05:58:28.694Z,85
2019-03-21T05:59:28.651Z,85
2019-03-21T06:00:28.621Z,90
2019-03-21T06:01:28.611Z,95
2019-03-21T06:02:28.570Z,95
2019-03-21T06:03:28.618Z,100
2019-03-21T06:04:28.527Z,105
2019-03-21T06:05:28.500Z,110
2019-03-21T06:06:28.467Z,115
2019-03-21T06:07:28.204Z,115
2019-03-21T06:08:28.419Z,115
2019-03-21T06:09:28.386Z,120
2019-03-21T06:10:28.359Z,120
2019-03-21T06:11:29.147Z,125
2019-03-21T06:12:29.716Z,130
2019-03-21T06:13:29.481Z,135
2019-03-21T06:14:28.259Z,140
2019-03-21T06:15:28.226Z,140
2019-03-21T06:16:39.584Z,145
2019-03-21T06:17:28.167Z,145
2019-03-21T06:18:28.145Z,150
2019-03-21T06:19:28.993Z,150
2019-03-21T06:20:30.155Z,155
2019-03-21T06:21:28.726Z,160
2019-03-21T06:22:28.827Z,160
2019-03-21T06:23:28.434Z,165
2019-03-21T06:24:28.500Z,165
2019-03-21T06:25:30.345Z,165
2019-03-21T06:26:29.485Z,170
2019-03-21T06:27:27.925Z,170
2019-03-21T06:28:28.740Z,170
2019-03-21T06:29:27.861Z,170
2019-03-21T06:30:27.829Z,170
2019-03-21T06:31:27.819Z,170
2019-03-21T06:32:27.774Z,165
2019-03-21T06:33:27.752Z,165
2019-03-21T06:34:27.731Z,165
2019-03-21T06:35:27.702Z,170
2019-03-21T06:36:27.671Z,170
2019-03-21T06:37:28.778Z,175
2019-03-21T06:38:27.611Z,175
2019-03-21T06:39:27.615Z,180
2019-03-21T06:40:27.122Z,185
2019-03-21T06:41:27.308Z,195
2019-03-21T06:42:27.057Z,195
2019-03-21T06:43:28.050Z,200
2019-03-21T06:44:28.926Z,205
2019-03-21T06:45:28.311Z,205
2019-03-21T06:46:27.767Z,210
2019-03-21T06:47:27.155Z,210
2019-03-21T06:48:27.355Z,210
2019-03-21T06:49:27.093Z,210
2019-03-21T06:50:27.304Z,210
2019-03-21T06:51:27.268Z,215
2019-03-21T06:52:27.250Z,215
2019-03-21T06:53:27.232Z,220
2019-03-21T06:54:27.200Z,225
2019-03-21T06:55:27.176Z,230
2019-03-21T06:56:27.141Z,230
2019-03-21T06:57:27.134Z,235
2019-03-21T06:58:27.096Z,235
2019-03-21T06:59:27.075Z,240
2019-03-21T07:00:29.454Z,235
2019-03-21T07:01:26.780Z,240
2019-03-21T07:02:26.995Z,240
2019-03-21T07:03:26.968Z,240
2019-03-21T07:04:26.943Z,240
2019-03-21T07:05:29.101Z,235
2019-03-21T07:06:27.045Z,235
2019-03-21T07:07:27.619Z,235
2019-03-21T07:08:27.690Z,235
2019-03-21T07:09:29.170Z,240
2019-03-21T07:10:26.787Z,245
2019-03-21T07:11:26.780Z,245
2019-03-21T07:12:26.749Z,245
2019-03-21T07:13:26.698Z,250
2019-03-21T07:14:26.684Z,250
2019-03-21T07:15:26.655Z,255
2019-03-21T07:16:26.707Z,260
2019-03-21T07:17:27.777Z,260
2019-03-21T07:18:26.586Z,260
2019-03-21T07:19:26.557Z,260
2019-03-21T07:20:26.558Z,265
2019-03-21T07:21:26.764Z,265
2019-03-21T07:22:26.492Z,270
2019-03-21T07:23:26.479Z,270
2019-03-21T07:24:26.452Z,270
2019-03-21T07:25:26.645Z,275
2019-03-21T07:26:27.550Z,275
2019-03-21T07:27:29.561Z,275
2019-03-21T07:28:28.756Z,275
2019-03-21T07:29:28.539Z,280
2019-03-21T07:30:28.917Z,280
2019-03-21T07:31:27.957Z,280
2019-03-21T07:32:38.273Z,280
2019-03-21T07:33:26.205Z,280
2019-03-21T07:34:26.202Z,280
2019-03-21T07:35:26.155Z,280
2019-03-21T07:36:28.712Z,280
2019-03-21T07:37:25.967Z,285
2019-03-21T07:38:26.085Z,285
2019-03-21T07:39:28.501Z,285
2019-03-21T07:40:26.044Z,285
2019-03-21T07:41:26.021Z,290
2019-03-21T07:42:26.125Z,290
2019-03-21T07:43:27.177Z,290
2019-03-21T07:44:25.943Z,290
2019-03-21T07:45:26.919Z,290
2019-03-21T07:46:25.919Z,290
2019-03-21T07:47:25.867Z,290
2019-03-21T07:48:25.857Z,295
2019-03-21T07:49:25.823Z,295
2019-03-21T07:50:25.563Z,295
2019-03-21T07:51:25.559Z,295
2019-03-21T07:52:25.752Z,300
2019-03-21T07:53:26.913Z,300
2019-03-21T07:54:25.697Z,300
2019-03-21T07:55:25.679Z,300
2019-03-21T07:56:27.427Z,300
2019-03-21T07:57:25.627Z,300
2019-03-21T07:58:25.594Z,305
2019-03-21T07:59:25.657Z,305
2019-03-21T08:00:25.547Z,305
2019-03-21T08:01:25.529Z,300
2019-03-21T08:02:25.378Z,300
2019-03-21T08:03:25.484Z,305
2019-03-21T08:04:25.485Z,300
2019-03-21T08:05:25.204Z,305
2019-03-21T08:06:25.429Z,300
2019-03-21T08:07:25.386Z,300
2019-03-21T08:08:25.356Z,295
2019-03-21T08:09:25.416Z,300
2019-03-21T08:10:25.517Z,300
2019-03-21T08:11:25.409Z,300
2019-03-21T08:12:25.537Z,300
2019-03-21T08:13:25.233Z,300
2019-03-21T08:14:25.253Z,300
2019-03-21T08:15:25.201Z,300
2019-03-21T08:16:24.973Z,300
2019-03-21T08:17:24.886Z,300
2019-03-21T08:18:25.985Z,300
2019-03-21T08:19:26.897Z,300
2019-03-21T08:20:27.880Z,300
2019-03-21T08:21:27.971Z,295
2019-03-21T08:22:27.226Z,295
2019-03-21T08:23:25.588Z,290
2019-03-21T08:24:25.599Z,290
2019-03-21T08:25:25.602Z,290
2019-03-21T08:26:27.106Z,290
2019-03-21T08:27:25.026Z,285
2019-03-21T08:28:24.913Z,285
2019-03-21T08:29:24.864Z,285
2019-03-21T08:30:24.843Z,285
2019-03-21T08:31:24.589Z,285
2019-03-21T08:32:24.891Z,290
2019-03-21T08:33:25.314Z,290
2019-03-21T08:34:24.751Z,290
2019-03-21T08:35:24.729Z,295
2019-03-21T08:36:24.726Z,295
2019-03-21T08:37:24.682Z,295
2019-03-21T08:38:25.034Z,295
2019-03-21T08:39:24.636Z,295
2019-03-21T08:40:24.627Z,295
2019-03-21T08:41:24.590Z,295
2019-03-21T08:42:24.569Z,300
2019-03-21T08:43:24.816Z,300
2019-03-21T08:44:24.525Z,300
2019-03-21T08:45:24.498Z,300
2019-03-21T08:46:24.096Z,300
2019-03-21T08:47:24.457Z,300
2019-03-21T08:48:24.435Z,300
2019-03-21T08:49:24.173Z,305
2019-03-21T08:50:24.699Z,305
2019-03-21T08:51:24.395Z,305
2019-03-21T08:52:24.357Z,305
2019-03-21T08:53:24.364Z,305
2019-03-21T08:54:24.289Z,305
2019-03-21T08:55:24.271Z,305
2019-03-21T08:56:24.069Z,305
2019-03-21T08:57:24.230Z,305
2019-03-21T08:58:24.206Z,310
2019-03-21T08:59:24.176Z,310
2019-03-21T09:00:33.706Z,310
2019-03-21T09:01:24.141Z,310
2019-03-21T09:02:23.938Z,315
2019-03-21T09:03:24.083Z,315
2019-03-21T09:04:24.092Z,320
2019-03-21T09:05:24.057Z,320
2019-03-21T09:06:24.022Z,320
2019-03-21T09:07:23.760Z,325
2019-03-21T09:08:23.980Z,325
2019-03-21T09:09:23.946Z,325
2019-03-21T09:10:23.950Z,325
2019-03-21T09:11:23.905Z,325
2019-03-21T09:12:23.875Z,325
2019-03-21T09:13:23.853Z,325
2019-03-21T09:14:23.865Z,325
2019-03-21T09:15:23.805Z,325
2019-03-21T09:16:23.802Z,325
2019-03-21T09:17:23.788Z,325
2019-03-21T09:18:23.742Z,325
2019-03-21T09:19:23.727Z,325
2019-03-21T09:20:26.011Z,325
2019-03-21T09:21:29.313Z,325
2019-03-21T09:22:27.464Z,325
2019-03-21T09:23:23.640Z,325
2019-03-21T09:24:23.596Z,325
2019-03-21T09:25:23.632Z,325
2019-03-21T09:26:23.557Z,325
2019-03-21T09:27:23.538Z,325
2019-03-21T09:28:23.835Z,325
2019-03-21T09:29:23.486Z,325
2019-03-21T09:30:23.480Z,325
2019-03-21T09:31:23.461Z,330
2019-03-21T09:32:23.934Z,330
2019-03-21T09:33:23.428Z,330
2019-03-21T09:34:23.379Z,335
2019-03-21T09:35:23.362Z,335
2019-03-21T09:36:23.349Z,330
2019-03-21T09:37:23.324Z,330
2019-03-21T09:38:23.306Z,330
2019-03-21T09:39:23.283Z,330
2019-03-21T09:40:23.316Z,330
2019-03-21T09:41:23.244Z,330
2019-03-21T09:42:23.595Z,330
2019-03-21T09:43:23.190Z,330
2019-03-21T09:44:23.172Z,330
2019-03-21T09:45:23.144Z,330
2019-03-21T09:46:23.135Z,325
2019-03-21T09:47:22.863Z,330
2019-03-21T09:48:23.241Z,330
2019-03-21T09:49:23.082Z,325
2019-03-21T09:50:23.042Z,325
2019-03-21T09:51:33.196Z,320
2019-03-21T09:52:23.020Z,320
2019-03-21T09:53:22.990Z,320
2019-03-21T09:54:22.957Z,320
2019-03-21T09:55:22.935Z,325
2019-03-21T09:56:24.039Z,325
2019-03-21T09:57:22.888Z,330
2019-03-21T09:58:22.877Z,330
2019-03-21T09:59:22.852Z,330
2019-03-21T10:00:22.824Z,335
2019-03-21T10:01:22.824Z,335
2019-03-21T10:02:22.798Z,330
2019-03-21T10:03:22.782Z,335
2019-03-21T10:04:22.790Z,330
2019-03-21T10:05:22.718Z,330
2019-03-21T10:06:22.694Z,330
2019-03-21T10:07:22.686Z,330
2019-03-21T10:08:22.691Z,330
2019-03-21T10:09:22.637Z,340
2019-03-21T10:10:22.620Z,340
2019-03-21T10:11:22.362Z,340
2019-03-21T10:12:23.357Z,340
2019-03-21T10:13:22.548Z,345
2019-03-21T10:14:22.534Z,345
2019-03-21T10:15:22.372Z,340
2019-03-21T10:16:22.479Z,340
2019-03-21T10:17:22.468Z,340
2019-03-21T10:18:22.444Z,335
2019-03-21T10:19:22.422Z,340
2019-03-21T10:20:22.498Z,340
2019-03-21T10:21:22.378Z,340
2019-03-21T10:22:22.443Z,340
2019-03-21T10:23:23.093Z,340
2019-03-21T10:24:22.747Z,340
2019-03-21T10:25:22.317Z,340
2019-03-21T10:26:24.168Z,345
2019-03-21T10:27:23.301Z,345
2019-03-21T10:28:24.318Z,350
2019-03-21T10:29:24.274Z,350
2019-03-21T10:30:24.452Z,350
2019-03-21T10:31:25.662Z,350
2019-03-21T10:32:26.253Z,360
2019-03-21T10:33:24.756Z,355
2019-03-21T10:34:24.877Z,355
2019-03-21T10:35:23.757Z,355
2019-03-21T10:36:25.076Z,355
2019-03-21T10:37:25.278Z,360
2019-03-21T10:38:24.240Z,360
2019-03-21T10:39:24.523Z,360
2019-03-21T10:40:24.370Z,360
2019-03-21T10:41:24.267Z,360
2019-03-21T10:42:21.938Z,365
2019-03-21T10:43:21.924Z,365
2019-03-21T10:44:21.939Z,365
2019-03-21T10:45:21.931Z,360
2019-03-21T10:46:21.859Z,360
2019-03-21T10:47:21.842Z,365
2019-03-21T10:48:23.529Z,365
2019-03-21T10:49:21.794Z,365
2019-03-21T10:50:21.769Z,365
2019-03-21T10:51:22.717Z,365
2019-03-21T10:52:21.730Z,360
2019-03-21T10:53:21.728Z,355
2019-03-21T10:54:23.651Z,355
2019-03-21T10:55:21.697Z,355
2019-03-21T10:56:21.651Z,355
2019-03-21T10:57:21.643Z,350
2019-03-21T10:58:21.613Z,350
2019-03-21T10:59:21.124Z,350
2019-03-21T11:00:21.335Z,345
2019-03-21T11:01:21.552Z,345
2019-03-21T11:02:21.580Z,345
2019-03-21T11:03:21.515Z,345
2019-03-21T11:04:21.283Z,350
2019-03-21T11:05:23.177Z,350
2019-03-21T11:06:21.447Z,350
2019-03-21T11:07:21.432Z,345
2019-03-21T11:08:21.403Z,345
2019-03-21T11:09:21.387Z,345
2019-03-21T11:10:21.368Z,345
2019-03-21T11:11:21.348Z,345
2019-03-21T11:12:21.321Z,345
2019-03-21T11:13:21.789Z,350
2019-03-21T11:14:21.295Z,350
2019-03-21T11:15:21.277Z,350
2019-03-21T11:16:21.011Z,350
2019-03-21T11:17:21.921Z,350
2019-03-21T11:18:21.303Z,350
2019-03-21T11:19:21.854Z,355
2019-03-21T11:20:21.165Z,355
2019-03-21T11:21:21.150Z,355
2019-03-21T11:22:21.126Z,355
2019-03-21T11:23:21.112Z,355
2019-03-21T11:24:21.091Z,355
2019-03-21T11:25:21.100Z,355
2019-03-21T11:26:20.807Z,355
2019-03-21T11:27:21.026Z,355
2019-03-21T11:28:22.522Z,360
2019-03-21T11:29:20.992Z,360
2019-03-21T11:30:25.292Z,360
2019-03-21T11:31:20.715Z,360
2019-03-21T11:32:20.924Z,360
2019-03-21T11:33:20.922Z,360
2019-03-21T11:34:20.901Z,360
2019-03-21T11:35:21.790Z,360
2019-03-21T11:36:20.858Z,360
2019-03-21T11:37:20.840Z,360
2019-03-21T11:38:20.832Z,360
2019-03-21T11:39:20.797Z,355
2019-03-21T11:40:20.791Z,355
2019-03-21T11:41:20.780Z,360
2019-03-21T11:42:20.808Z,355
2019-03-21T11:43:20.881Z,355
2019-03-21T11:44:20.750Z,355
2019-03-21T11:45:22.251Z,355
2019-03-21T11:46:20.713Z,355
2019-03-21T11:47:20.658Z,360
2019-03-21T11:48:20.452Z,360
2019-03-21T11:49:20.627Z,355
2019-03-21T11:50:20.413Z,355
2019-03-21T11:51:20.632Z,355
2019-03-21T11:52:27.751Z,355
2019-03-21T11:53:20.553Z,355
2019-03-21T11:54:20.502Z,360
2019-03-21T11:55:20.529Z,355
2019-03-21T11:56:22.421Z,355
2019-03-21T11:57:20.457Z,355
2019-03-21T11:58:22.158Z,355
2019-03-21T11:59:20.745Z,360
2019-03-21T12:00:20.397Z,360
2019-03-21T12:01:20.361Z,360
2019-03-21T12:02:31.387Z,365
2019-03-21T12:03:20.339Z,365
2019-03-21T12:04:20.308Z,365
2019-03-21T12:05:20.314Z,370
2019-03-21T12:06:20.287Z,370
2019-03-21T12:07:20.244Z,370
2019-03-21T12:08:20.226Z,370
2019-03-21T12:09:20.208Z,370
2019-03-21T12:10:20.190Z,370
2019-03-21T12:11:21.335Z,370
2019-03-21T12:12:20.145Z,380
2019-03-21T12:13:20.143Z,375
2019-03-21T12:14:20.116Z,375
2019-03-21T12:15:20.101Z,375
2019-03-21T12:16:20.083Z,375
2019-03-21T12:17:22.272Z,375
2019-03-21T12:18:20.055Z,375
2019-03-21T12:19:20.116Z,375
2019-03-21T12:20:20.016Z,375
2019-03-21T12:21:19.990Z,380
2019-03-21T12:22:31.743Z,380
2019-03-21T12:23:19.946Z,375
2019-03-21T12:24:19.957Z,380
2019-03-21T12:25:19.908Z,380
2019-03-21T12:26:19.654Z,380
2019-03-21T12:27:19.866Z,380
2019-03-21T12:28:19.616Z,380
2019-03-21T12:29:19.841Z,380
2019-03-21T12:30:19.811Z,380
2019-03-21T12:31:19.801Z,380
2019-03-21T12:32:19.583Z,380
2019-03-21T12:33:19.761Z,380
2019-03-21T12:34:19.738Z,380
2019-03-21T12:35:19.725Z,380
2019-03-21T12:36:19.692Z,380
2019-03-21T12:37:19.689Z,380
2019-03-21T12:38:19.661Z,380
2019-03-21T12:39:19.642Z,380
2019-03-21T12:40:19.629Z,375
2019-03-21T12:41:19.619Z,375
2019-03-21T12:42:19.387Z,375
2019-03-21T12:43:19.591Z,380
2019-03-21T12:44:19.558Z,375
2019-03-21T12:45:19.534Z,375
2019-03-21T12:46:19.287Z,375
2019-03-21T12:47:30.461Z,375
2019-03-21T12:48:19.277Z,375
2019-03-21T12:49:19.458Z,375
2019-03-21T12:50:19.441Z,375
2019-03-21T12:51:20.106Z,375
2019-03-21T12:52:19.562Z,375
2019-03-21T12:53:19.430Z,375
2019-03-21T12:54:19.379Z,375
2019-03-21T12:55:19.357Z,375
2019-03-21T12:56:19.331Z,370
2019-03-21T12:57:19.313Z,370
2019-03-21T12:58:19.335Z,370
2019-03-21T12:59:19.278Z,370
2019-03-21T13:00:19.340Z,370
2019-03-21T13:01:19.238Z,370
2019-03-21T13:02:19.219Z,370
2019-03-21T13:03:19.197Z,370
2019-03-21T13:04:19.183Z,370
2019-03-21T13:05:19.163Z,370
2019-03-21T13:06:19.135Z,365
2019-03-21T13:07:20.972Z,365
2019-03-21T13:08:19.107Z,365
2019-03-21T13:09:19.085Z,360
2019-03-21T13:10:20.148Z,360
2019-03-21T13:11:19.055Z,360
2019-03-21T13:12:19.044Z,360
2019-03-21T13:13:19.387Z,365
2019-03-21T13:14:18.993Z,360
2019-03-21T13:15:29.398Z,360
2019-03-21T13:16:19.107Z,360
2019-03-21T13:17:18.946Z,360
2019-03-21T13:18:18.919Z,360
2019-03-21T13:19:18.893Z,360
2019-03-21T13:20:18.874Z,360
2019-03-21T13:21:18.861Z,360
2019-03-21T13:22:18.839Z,360
2019-03-21T13:23:18.614Z,360
2019-03-21T13:24:23.817Z,360
2019-03-21T13:25:18.552Z,360
2019-03-21T13:26:18.773Z,360
2019-03-21T13:27:18.747Z,360
2019-03-21T13:28:18.736Z,360
2019-03-21T13:29:18.718Z,355
2019-03-21T13:30:18.462Z,360
2019-03-21T13:31:18.676Z,360
2019-03-21T13:32:18.654Z,360
2019-03-21T13:33:18.643Z,355
2019-03-21T13:34:18.613Z,365
2019-03-21T13:35:18.596Z,355
2019-03-21T13:36:18.583Z,360
2019-03-21T13:37:18.554Z,355
2019-03-21T13:38:18.550Z,355
2019-03-21T13:39:18.597Z,355
2019-03-21T13:40:18.509Z,355
2019-03-21T13:41:18.493Z,355
2019-03-21T13:42:18.235Z,355
2019-03-21T13:43:21.105Z,355
2019-03-21T13:44:18.887Z,355
2019-03-21T13:45:21.811Z,360
2019-03-21T13:46:21.312Z,360
2019-03-21T13:47:19.706Z,360
2019-03-21T13:48:21.056Z,360
2019-03-21T13:49:18.096Z,360
2019-03-21T13:50:18.387Z,360
2019-03-21T13:51:20.654Z,360
2019-03-21T13:52:21.099Z,355
2019-03-21T13:53:27.520Z,365
2019-03-21T13:54:18.445Z,360
2019-03-21T13:55:18.244Z,360
2019-03-21T13:56:18.257Z,360
2019-03-21T13:57:18.191Z,360
2019-03-21T13:58:18.160Z,355
2019-03-21T13:59:18.147Z,355
2019-03-21T14:00:18.135Z,355
2019-03-21T14:01:18.129Z,360
2019-03-21T14:02:18.096Z,355
2019-03-21T14:03:29.592Z,355
2019-03-21T14:04:18.067Z,355
2019-03-21T14:05:18.039Z,355
2019-03-21T14:06:18.026Z,355
2019-03-21T14:07:18.021Z,355
2019-03-21T14:08:17.981Z,355
2019-03-21T14:09:20.294Z,355